Time,TemperatureF,DewpointF,PressureIn,WindDirection,WindDirectionDegrees,WindSpeedMPH,WindSpeedGustMPH,Humidity,HourlyPrecipIn,Conditions,Clouds,dailyrainin,SoftwareType,DateUTC
2013-11-03 00:03:00,34.0,32.0,-100.00,NNE,25,1.0,2.0,91,0.00,,,-99.99,,2013-11-03 05:03:00,
2013-11-03 00:13:00,34.0,32.0,-100.00,NNE,25,1.0,2.0,91,0.00,,,-99.99,,2013-11-03 05:13:00,
2013-11-03 00:53:00,32.0,30.0,-100.00,NNW,340,1.0,1.0,92,0.00,,,-99.99,,2013-11-03 05:53:00,
2013-11-03 01:03:00,32.0,30.0,-100.00,NNW,340,1.0,1.0,92,0.00,,,-99.99,,2013-11-03 06:03:00,
2013-11-03 01:12:00,32.0,30.0,-100.00,NNW,340,1.0,1.0,92,0.00,,,-99.99,,2013-11-03 06:12:00,
2013-11-03 01:53:00,30.0,28.0,-100.00,NE,50,0.0,1.0,92,0.00,,,-99.99,,2013-11-03 06:53:00,
2013-11-03 01:01:00,30.0,28.0,-100.00,NE,50,0.0,1.0,92,0.00,,,-99.99,,2013-11-03 07:01:00,
2013-11-03 01:11:00,30.0,28.0,-100.00,NE,50,0.0,1.0,92,0.00,,,-99.99,,2013-11-03 07:11:00,
2013-11-03 02:52:00,29.0,27.0,-100.00,West,265,1.0,1.0,92,0.00,,,-99.99,,2013-11-03 08:52:00,
2013-11-03 03:02:00,29.0,27.0,-100.00,West,265,1.0,1.0,92,0.00,,,-99.99,,2013-11-03 09:02:00,
2013-11-03 03:12:00,29.0,27.0,-100.00,West,265,1.0,1.0,92,0.00,,,-99.99,,2013-11-03 09:12:00,
2013-11-03 03:53:00,28.0,26.0,-100.00,WSW,245,1.0,2.0,93,0.00,,,-99.99,,2013-11-03 09:53:00,
2013-11-03 04:03:00,28.0,26.0,-100.00,WSW,245,1.0,2.0,93,0.00,,,-99.99,,2013-11-03 10:03:00,
2013-11-03 04:13:00,28.0,26.0,-100.00,WSW,245,1.0,2.0,93,0.00,,,-99.99,,2013-11-03 10:13:00,
2013-11-03 04:22:00,26.0,24.0,-100.00,NNE,25,1.0,1.0,93,0.00,,,-99.99,,2013-11-03 10:22:00,
2013-11-03 04:53:00,26.0,24.0,-100.00,NNE,25,1.0,1.0,93,0.00,,,-99.99,,2013-11-03 10:53:00,
2013-11-03 05:02:00,26.0,24.0,-100.00,NNE,25,1.0,1.0,93,0.00,,,-99.99,,2013-11-03 11:02:00,
2013-11-03 05:12:00,26.0,24.0,-100.00,NNE,25,1.0,1.0,93,0.00,,,-99.99,,2013-11-03 11:12:00,
2013-11-03 05:20:00,26.0,24.0,-100.00,ENE,60,2.0,3.0,93,0.00,,,-99.99,,2013-11-03 11:20:00,
2013-11-03 05:52:00,26.0,24.0,-100.00,ENE,60,2.0,3.0,93,0.00,,,-99.99,,2013-11-03 11:52:00,
2013-11-03 06:02:00,26.0,24.0,-100.00,ENE,60,2.0,3.0,93,0.00,,,-99.99,,2013-11-03 12:02:00,
2013-11-03 06:12:00,26.0,24.0,-100.00,ENE,60,2.0,3.0,93,0.00,,,-99.99,,2013-11-03 12:12:00,
2013-11-03 06:20:00,26.0,24.0,-100.00,NE,40,0.0,1.0,93,0.00,,,-99.99,,2013-11-03 12:20:00,
2013-11-03 06:52:00,26.0,24.0,-100.00,NE,40,0.0,1.0,93,0.00,,,-99.99,,2013-11-03 12:52:00,
2013-11-03 07:02:00,26.0,24.0,-100.00,NE,40,0.0,1.0,93,0.00,,,-99.99,,2013-11-03 13:02:00,
2013-11-03 07:12:00,26.0,24.0,-100.00,NE,40,0.0,1.0,93,0.00,,,-99.99,,2013-11-03 13:12:00,
2013-11-03 07:52:00,27.0,25.0,-100.00,NE,55,2.0,2.0,93,0.00,,,-99.99,,2013-11-03 13:52:00,
2013-11-03 08:02:00,27.0,25.0,-100.00,NE,55,2.0,2.0,93,0.00,,,-99.99,,2013-11-03 14:02:00,
2013-11-03 08:12:00,27.0,25.0,-100.00,NE,55,2.0,2.0,93,0.00,,,-99.99,,2013-11-03 14:12:00,
2013-11-03 08:22:00,28.0,26.0,-100.00,NNE,20,1.0,2.0,93,0.00,,,-99.99,,2013-11-03 14:22:00,
2013-11-03 08:52:00,28.0,26.0,-100.00,NNE,20,1.0,2.0,93,0.00,,,-99.99,,2013-11-03 14:52:00,
2013-11-03 09:02:00,28.0,26.0,-100.00,NNE,20,1.0,2.0,93,0.00,,,-99.99,,2013-11-03 15:02:00,
2013-11-03 09:11:00,28.0,26.0,-100.00,NNE,20,1.0,2.0,93,0.00,,,-99.99,,2013-11-03 15:11:00,
2013-11-03 09:53:00,33.0,31.0,-100.00,NW,320,1.0,2.0,93,0.00,,,-99.99,,2013-11-03 15:53:00,
2013-11-03 10:03:00,33.0,31.0,-100.00,NW,320,1.0,2.0,93,0.00,,,-99.99,,2013-11-03 16:03:00,
2013-11-03 10:13:00,33.0,31.0,-100.00,NW,320,1.0,2.0,93,0.00,,,-99.99,,2013-11-03 16:13:00,
2013-11-03 10:53:00,35.0,33.0,-100.00,NE,55,2.0,4.0,93,0.00,,,-99.99,,2013-11-03 16:53:00,
2013-11-03 11:03:00,35.0,33.0,-100.00,NE,55,2.0,4.0,93,0.00,,,-99.99,,2013-11-03 17:03:00,
2013-11-03 11:13:00,35.0,33.0,-100.00,NE,55,2.0,4.0,93,0.00,,,-99.99,,2013-11-03 17:13:00,
2013-11-03 11:20:00,44.0,40.0,-100.00,SSE,165,10.0,15.0,85,0.00,,,-99.99,,2013-11-03 17:20:00,
2013-11-03 11:53:00,44.0,40.0,-100.00,SSE,165,10.0,15.0,85,0.00,,,-99.99,,2013-11-03 17:53:00,
2013-11-03 12:02:00,44.0,40.0,-100.00,SSE,165,10.0,15.0,85,0.00,,,-99.99,,2013-11-03 18:02:00,
2013-11-03 12:11:00,44.0,40.0,-100.00,SSE,165,10.0,15.0,85,0.00,,,-99.99,,2013-11-03 18:11:00,
2013-11-03 12:22:00,47.0,29.0,-100.00,South,170,7.0,13.0,48,0.00,,,-99.99,,2013-11-03 18:22:00,
2013-11-03 13:53:00,49.0,27.0,-100.00,SSE,160,7.0,14.0,43,0.00,,,-99.99,,2013-11-03 19:53:00,
2013-11-03 14:01:00,49.0,27.0,-100.00,SSE,160,7.0,14.0,43,0.00,,,-99.99,,2013-11-03 20:01:00,
2013-11-03 14:11:00,49.0,27.0,-100.00,SSE,160,7.0,14.0,43,0.00,,,-99.99,,2013-11-03 20:11:00,
2013-11-03 14:52:00,50.0,26.0,-100.00,SE,140,5.0,12.0,40,0.00,,,-99.99,,2013-11-03 20:52:00,
2013-11-03 15:02:00,50.0,26.0,-100.00,SE,140,5.0,12.0,40,0.00,,,-99.99,,2013-11-03 21:02:00,
2013-11-03 15:12:00,50.0,26.0,-100.00,SE,140,5.0,12.0,40,0.00,,,-99.99,,2013-11-03 21:12:00,
2013-11-03 15:20:00,48.0,25.0,-100.00,SE,135,4.0,15.0,40,0.00,,,-99.99,,2013-11-03 21:20:00,
2013-11-03 15:55:00,48.0,25.0,-100.00,SE,135,4.0,15.0,40,0.00,,,-99.99,,2013-11-03 21:55:00,
2013-11-03 16:03:00,48.0,25.0,-100.00,SE,135,4.0,15.0,40,0.00,,,-99.99,,2013-11-03 22:03:00,
2013-11-03 16:12:00,48.0,25.0,-100.00,SE,135,4.0,15.0,40,0.00,,,-99.99,,2013-11-03 22:12:00,
2013-11-03 16:52:00,46.0,25.0,-100.00,SSE,150,2.0,12.0,44,0.00,,,-99.99,,2013-11-03 22:52:00,
2013-11-03 17:02:00,46.0,25.0,-100.00,SSE,150,2.0,12.0,44,0.00,,,-99.99,,2013-11-03 23:02:00,
2013-11-03 17:12:00,46.0,25.0,-100.00,SSE,150,2.0,12.0,44,0.00,,,-99.99,,2013-11-03 23:12:00,
2013-11-03 17:53:00,43.0,27.0,-100.00,SSW,210,0.0,3.0,53,0.00,,,-99.99,,2013-11-03 23:53:00,
2013-11-03 18:02:00,43.0,27.0,-100.00,SSW,210,0.0,3.0,53,0.00,,,-99.99,,2013-11-04 00:02:00,
2013-11-03 18:11:00,43.0,27.0,-100.00,SSW,210,0.0,3.0,53,0.00,,,-99.99,,2013-11-04 00:11:00,
2013-11-03 18:52:00,42.0,29.0,-100.00,NE,50,0.0,3.0,60,0.00,,,-99.99,,2013-11-04 00:52:00,
2013-11-03 19:02:00,42.0,29.0,-100.00,NE,50,0.0,3.0,60,0.00,,,-99.99,,2013-11-04 01:02:00,
2013-11-03 19:11:00,42.0,29.0,-100.00,NE,50,0.0,3.0,60,0.00,,,-99.99,,2013-11-04 01:11:00,
2013-11-03 19:20:00,41.0,30.0,-100.00,SE,145,2.0,6.0,64,0.00,,,-99.99,,2013-11-04 01:20:00,
2013-11-03 19:52:00,41.0,30.0,-100.00,SE,145,2.0,6.0,64,0.00,,,-99.99,,2013-11-04 01:52:00,
2013-11-03 20:02:00,41.0,30.0,-100.00,SE,145,2.0,6.0,64,0.00,,,-99.99,,2013-11-04 02:02:00,
2013-11-03 20:12:00,41.0,30.0,-100.00,SE,145,2.0,6.0,64,0.00,,,-99.99,,2013-11-04 02:12:00,
2013-11-03 20:53:00,42.0,34.0,-100.00,SSE,155,4.0,9.0,72,0.00,,,-99.99,,2013-11-04 02:53:00,
2013-11-03 21:02:00,42.0,34.0,-100.00,SSE,155,4.0,9.0,72,0.00,,,-99.99,,2013-11-04 03:02:00,
2013-11-03 21:11:00,42.0,34.0,-100.00,SSE,155,4.0,9.0,72,0.00,,,-99.99,,2013-11-04 03:11:00,
2013-11-03 21:20:00,41.0,35.0,-100.00,SE,145,4.0,12.0,78,0.00,,,-99.99,,2013-11-04 03:20:00,
2013-11-03 21:54:00,41.0,35.0,-100.00,SE,145,4.0,12.0,78,0.00,,,-99.99,,2013-11-04 03:54:00,
2013-11-03 22:04:00,41.0,35.0,-100.00,SE,145,4.0,12.0,78,0.00,,,-99.99,,2013-11-04 04:04:00,
2013-11-03 22:13:00,41.0,35.0,-100.00,SE,145,4.0,12.0,78,0.00,,,-99.99,,2013-11-04 04:13:00,
2013-11-03 22:53:00,43.0,34.0,-100.00,SSE,160,12.0,21.0,70,0.00,,,-99.99,,2013-11-04 04:53:00,
2013-11-03 23:03:00,43.0,34.0,-100.00,SSE,160,12.0,21.0,70,0.00,,,-99.99,,2013-11-04 05:03:00,
2013-11-03 23:13:00,43.0,34.0,-100.00,SSE,160,12.0,21.0,70,0.00,,,-99.99,,2013-11-04 05:13:00,
2013-11-03 23:53:00,43.0,34.0,-100.00,SSE,155,10.0,16.0,70,0.00,,,-99.99,,2013-11-04 05:53:00,